createdAt,value
2023-04-18T05:22:42.554Z,8.68
2023-04-18T05:25:10.757Z,8.70
2023-04-18T05:27:38.865Z,8.74
2023-04-18T05:30:07.687Z,8.79
2023-04-18T05:32:35.827Z,8.83
2023-04-18T05:35:03.983Z,8.82
2023-04-18T05:37:31.924Z,8.80
2023-04-18T05:40:00.930Z,8.77
2023-04-18T05:42:29.368Z,8.77
2023-04-18T05:44:57.361Z,8.80
2023-04-18T05:47:28.533Z,8.85
2023-04-18T05:49:56.560Z,8.91
2023-04-18T05:52:26.226Z,8.95
2023-04-18T05:54:54.305Z,8.98
2023-04-18T05:57:22.396Z,9.02
2023-04-18T05:59:50.600Z,9.02
2023-04-18T06:02:18.629Z,9.02
2023-04-18T06:04:46.814Z,9.04
2023-04-18T06:07:14.937Z,9.11
2023-04-18T06:09:43.083Z,9.19
2023-04-18T06:12:11.251Z,9.26
2023-04-18T06:14:39.388Z,9.32
2023-04-18T06:17:07.695Z,9.38
2023-04-18T06:19:35.762Z,9.42
2023-04-18T06:22:03.681Z,9.46
2023-04-18T06:24:31.614Z,9.51
2023-04-18T06:26:59.611Z,9.54
2023-04-18T06:29:33.157Z,9.62
2023-04-18T06:32:01.300Z,9.78
2023-04-18T06:34:29.272Z,9.92
2023-04-18T06:36:57.231Z,10.05
2023-04-18T06:39:25.375Z,10.15
2023-04-18T06:41:53.477Z,10.20
2023-04-18T06:44:28.732Z,10.19
2023-04-18T06:46:56.861Z,10.19
2023-04-18T06:49:26.372Z,10.18
2023-04-18T06:51:54.913Z,10.20
2023-04-18T06:54:22.983Z,10.25
2023-04-18T06:56:52.530Z,10.32
2023-04-18T06:59:21.721Z,10.38
2023-04-18T07:01:50.884Z,10.44
2023-04-18T07:04:19.114Z,10.47
2023-04-18T07:06:47.495Z,10.50
2023-04-18T07:09:15.481Z,10.54
2023-04-18T07:11:43.668Z,10.63
2023-04-18T07:14:12.459Z,10.72
2023-04-18T07:16:40.768Z,10.78
2023-04-18T07:19:09.417Z,10.86
2023-04-18T07:21:38.865Z,10.94
2023-04-18T07:24:06.974Z,10.96
2023-04-18T07:26:35.077Z,10.94
2023-04-18T07:29:03.082Z,10.97
2023-04-18T07:31:31.481Z,11.05
2023-04-18T07:33:59.498Z,11.13
2023-04-18T07:36:28.481Z,11.18
2023-04-18T07:38:56.375Z,11.24
2023-04-18T07:41:24.375Z,11.27
2023-04-18T07:43:52.258Z,11.28
2023-04-18T07:46:20.218Z,11.32
2023-04-18T07:48:48.162Z,11.38
2023-04-18T07:51:16.049Z,11.52
2023-04-18T07:53:44.189Z,11.60
2023-04-18T07:56:15.073Z,11.64
2023-04-18T07:58:42.952Z,11.67
2023-04-18T08:01:14.321Z,11.68
2023-04-18T08:03:42.382Z,11.69
2023-04-18T08:06:10.508Z,11.68
2023-04-18T08:08:38.476Z,11.70
2023-04-18T08:11:06.455Z,11.75
2023-04-18T08:13:34.395Z,11.76
2023-04-18T08:16:03.097Z,11.78
2023-04-18T08:18:31.088Z,11.86
2023-04-18T08:20:59.435Z,11.92
2023-04-18T08:23:27.486Z,11.93
2023-04-18T08:28:29.373Z,12.03
2023-04-18T08:30:57.426Z,12.07
2023-04-18T08:33:25.789Z,12.13
2023-04-18T08:35:53.973Z,12.17
2023-04-18T08:38:21.941Z,12.16
2023-04-18T08:40:49.816Z,12.28
2023-04-18T08:43:17.877Z,12.43
2023-04-18T08:45:45.923Z,12.61
2023-04-18T08:52:34.271Z,12.54
2023-04-18T08:56:06.155Z,12.59
2023-04-18T08:58:35.028Z,12.56
2023-04-18T09:01:03.304Z,12.53
2023-04-18T09:03:41.776Z,12.49
2023-04-18T09:06:14.040Z,12.50
2023-04-18T09:08:46.570Z,12.56
2023-04-18T09:11:42.462Z,12.75
2023-04-18T09:14:24.336Z,12.96
2023-04-18T09:16:52.179Z,13.03
2023-04-18T09:19:21.881Z,13.00
2023-04-18T09:21:59.072Z,12.88
2023-04-18T09:24:28.665Z,12.73
2023-04-18T09:26:59.746Z,12.59
2023-04-18T09:29:49.496Z,12.52
2023-04-18T09:32:30.842Z,12.62
2023-04-18T09:35:04.011Z,12.76
2023-04-18T09:37:32.792Z,12.91
2023-04-18T09:40:00.990Z,13.06
2023-04-18T09:42:36.210Z,13.24
2023-04-18T09:45:08.501Z,13.42
2023-04-18T09:47:37.537Z,13.58
2023-04-18T09:50:07.990Z,13.65
2023-04-18T09:52:38.032Z,13.68
2023-04-18T09:55:08.954Z,13.69
2023-04-18T09:57:41.326Z,13.80
2023-04-18T10:00:27.430Z,13.81
2023-04-18T10:03:16.029Z,13.71
2023-04-18T10:05:44.649Z,13.58
2023-04-18T10:08:14.067Z,13.44
2023-04-18T10:10:42.337Z,13.25
2023-04-18T10:13:13.969Z,13.10
2023-04-18T10:15:44.265Z,13.06
2023-04-18T10:18:16.599Z,13.03
2023-04-18T10:20:47.076Z,13.11
2023-04-18T10:23:38.655Z,13.25
2023-04-18T10:26:12.095Z,13.54
2023-04-18T10:28:59.014Z,13.61
2023-04-18T10:31:29.140Z,13.61
2023-04-18T10:36:30.443Z,13.61
2023-04-18T10:39:21.047Z,13.65
2023-04-18T10:41:51.081Z,13.69
2023-04-18T10:44:22.895Z,13.68
2023-04-18T10:46:51.505Z,13.58
2023-04-18T10:49:27.369Z,13.47
2023-04-18T10:52:01.360Z,13.36
2023-04-18T10:54:32.403Z,13.25
2023-04-18T10:57:04.770Z,13.15
2023-04-18T10:59:38.470Z,13.07
2023-04-18T11:02:26.495Z,12.98
2023-04-18T11:04:57.361Z,12.88
2023-04-18T11:07:40.195Z,12.88
2023-04-18T11:10:09.869Z,12.90
2023-04-18T11:12:41.071Z,12.87
2023-04-18T11:15:16.084Z,12.92
2023-04-18T11:17:44.581Z,13.04
2023-04-18T11:20:15.141Z,13.11
2023-04-18T11:23:01.461Z,13.08
2023-04-18T11:25:32.372Z,13.01
2023-04-18T11:28:02.256Z,12.94
2023-04-18T11:31:02.066Z,12.95
2023-04-18T11:33:30.522Z,12.96
2023-04-18T11:35:59.614Z,12.95
2023-04-18T11:38:31.183Z,12.99
2023-04-18T11:40:59.435Z,12.97
2023-04-18T11:43:27.384Z,12.94
2023-04-18T11:45:57.169Z,13.03
2023-04-18T11:48:35.018Z,13.21
2023-04-18T11:51:02.884Z,13.56
2023-04-18T11:53:38.294Z,13.87
2023-04-18T11:56:06.957Z,14.04
2023-04-18T11:58:36.466Z,14.09
2023-04-18T12:01:24.786Z,14.27
2023-04-18T12:04:09.263Z,14.48
2023-04-18T12:06:51.294Z,14.68
2023-04-18T12:09:21.753Z,14.70
2023-04-18T12:12:04.057Z,14.64
2023-04-18T12:14:31.914Z,14.49
2023-04-18T12:17:03.688Z,14.36
2023-04-18T12:19:32.900Z,14.44
2023-04-18T12:22:05.397Z,14.61
2023-04-18T12:24:33.991Z,14.68
2023-04-18T12:27:02.366Z,14.86
2023-04-18T12:29:30.568Z,15.07
2023-04-18T12:31:58.709Z,15.18
2023-04-18T12:34:26.728Z,15.23
2023-04-18T12:36:54.649Z,15.38
2023-04-18T12:39:22.577Z,15.36
2023-04-18T12:41:50.635Z,15.11
2023-04-18T12:44:19.766Z,14.99
2023-04-18T12:46:48.073Z,15.01
2023-04-18T12:49:16.080Z,14.95
2023-04-18T12:51:44.066Z,14.87
2023-04-18T12:54:12.363Z,14.85
2023-04-18T12:56:40.466Z,14.92
2023-04-18T12:59:08.307Z,14.98
2023-04-18T13:01:36.577Z,15.00
2023-04-18T13:04:12.546Z,15.08
2023-04-18T13:06:41.541Z,15.23
2023-04-18T13:09:10.518Z,15.29
2023-04-18T13:11:38.442Z,15.22
2023-04-18T13:14:06.423Z,15.11
2023-04-18T13:16:34.426Z,15.06
2023-04-18T13:19:02.300Z,15.16
2023-04-18T13:21:31.457Z,15.26
2023-04-18T13:23:59.427Z,15.33
2023-04-18T13:26:27.498Z,15.42
2023-04-18T13:28:55.571Z,15.43
2023-04-18T13:31:23.993Z,15.45
2023-04-18T13:33:52.021Z,15.45
2023-04-18T13:36:20.760Z,15.48
2023-04-18T13:38:48.846Z,15.44
2023-04-18T13:41:16.938Z,15.54
2023-04-18T13:43:44.862Z,15.60
2023-04-18T13:46:12.958Z,15.63
2023-04-18T13:48:40.960Z,15.65
2023-04-18T13:51:08.931Z,15.72
2023-04-18T13:53:37.005Z,15.73
2023-04-18T13:56:05.978Z,15.79
2023-04-18T13:58:33.963Z,15.88
2023-04-18T14:01:02.262Z,15.85
2023-04-18T14:03:30.894Z,15.81
2023-04-18T14:05:59.510Z,15.73
2023-04-18T14:08:27.689Z,15.69
2023-04-18T14:10:55.862Z,15.70
2023-04-18T14:13:23.810Z,15.74
2023-04-18T14:15:53.921Z,15.63
2023-04-18T14:18:23.681Z,15.70
2023-04-18T14:20:52.060Z,15.68
2023-04-18T14:23:20.189Z,15.53
2023-04-18T14:25:48.028Z,15.44
2023-04-18T14:28:19.324Z,15.43
2023-04-18T14:30:47.244Z,15.38
2023-04-18T14:33:15.106Z,15.33
2023-04-18T14:35:44.058Z,15.33
2023-04-18T14:38:11.940Z,15.32
2023-04-18T14:40:39.991Z,15.30
2023-04-18T14:43:08.071Z,15.36
2023-04-18T14:45:35.983Z,15.39
2023-04-18T14:48:04.174Z,15.41
2023-04-18T14:50:32.143Z,15.40
2023-04-18T14:53:00.348Z,15.35
2023-04-18T14:55:28.679Z,15.29
2023-04-18T14:57:56.741Z,15.23
2023-04-18T15:00:24.958Z,15.20
2023-04-18T15:02:53.782Z,15.17
2023-04-18T15:05:23.906Z,15.14
2023-04-18T15:07:52.295Z,15.11
2023-04-18T15:10:22.530Z,15.14
2023-04-18T15:12:51.295Z,15.14
2023-04-18T15:15:19.869Z,15.15
2023-04-18T15:17:47.762Z,15.07
2023-04-18T15:20:16.133Z,14.99
2023-04-18T15:22:44.194Z,14.93
2023-04-18T15:25:16.467Z,14.80
2023-04-18T15:27:44.406Z,14.69
2023-04-18T15:30:12.585Z,14.67
2023-04-18T15:32:42.317Z,14.67
2023-04-18T15:35:11.352Z,14.71
2023-04-18T15:37:39.315Z,14.67
2023-04-18T15:40:10.470Z,14.57
2023-04-18T15:42:39.435Z,14.52
2023-04-18T15:45:08.200Z,14.45
2023-04-18T15:47:36.487Z,14.41
2023-04-18T15:50:05.460Z,14.41
2023-04-18T15:52:33.298Z,14.36
2023-04-18T15:55:01.405Z,14.25
2023-04-18T15:57:29.897Z,14.18
2023-04-18T15:59:58.542Z,14.10
2023-04-18T16:02:26.905Z,14.02
2023-04-18T16:04:54.978Z,13.96
2023-04-18T16:07:22.941Z,13.91
2023-04-18T16:09:50.813Z,13.83
2023-04-18T16:12:18.704Z,13.76
2023-04-18T16:14:46.775Z,13.72
2023-04-18T16:17:14.757Z,13.68
2023-04-18T16:19:43.010Z,13.66
2023-04-18T16:22:12.332Z,13.62
2023-04-18T16:24:42.169Z,13.59
2023-04-18T16:27:10.376Z,13.57
2023-04-18T16:29:38.311Z,13.54
2023-04-18T16:32:09.184Z,13.54
2023-04-18T16:34:37.083Z,13.51
2023-04-18T16:37:05.070Z,13.44
2023-04-18T16:39:33.131Z,13.40
2023-04-18T16:42:01.497Z,13.35
2023-04-18T16:44:30.804Z,13.28
2023-04-18T16:46:59.192Z,13.25
2023-04-18T16:49:27.528Z,13.21
2023-04-18T16:51:55.686Z,13.20
2023-04-18T16:54:23.609Z,13.22
2023-04-18T16:56:51.504Z,13.17
2023-04-18T16:59:19.647Z,13.07
2023-04-18T17:01:47.537Z,13.02
2023-04-18T17:04:16.029Z,12.98
2023-04-18T17:06:44.373Z,12.96
2023-04-18T17:09:14.835Z,12.90
2023-04-18T17:11:43.082Z,12.81
2023-04-18T17:14:11.724Z,12.72
2023-04-18T17:16:41.730Z,12.69
2023-04-18T17:19:10.355Z,12.62
2023-04-18T17:21:38.659Z,12.59
2023-04-18T17:24:07.429Z,12.64
2023-04-18T17:26:39.394Z,12.62
2023-04-18T17:29:07.668Z,12.59
2023-04-18T17:31:36.607Z,12.54
2023-04-18T17:34:04.736Z,12.51
2023-04-18T17:36:32.778Z,12.48
2023-04-18T17:39:06.504Z,12.47
2023-04-18T17:41:39.613Z,12.48
2023-04-18T17:44:08.445Z,12.47
2023-04-18T17:46:36.702Z,12.49
2023-04-18T17:49:05.043Z,12.46
2023-04-18T17:51:33.365Z,12.41
2023-04-18T17:54:01.282Z,12.36
2023-04-18T17:56:30.684Z,12.30
2023-04-18T17:58:58.764Z,12.24
2023-04-18T18:01:28.812Z,12.23
2023-04-18T18:03:57.324Z,12.21
2023-04-18T18:06:27.719Z,12.15
2023-04-18T18:08:56.188Z,12.09
2023-04-18T18:11:24.161Z,12.00
2023-04-18T18:13:54.886Z,11.88
2023-04-18T18:16:24.257Z,11.75
2023-04-18T18:18:52.663Z,11.63
2023-04-18T18:21:20.541Z,11.53
2023-04-18T18:23:48.598Z,11.38
2023-04-18T18:26:16.481Z,11.28
2023-04-18T18:28:44.323Z,11.20
2023-04-18T18:31:12.214Z,11.14
2023-04-18T18:33:40.365Z,11.08
2023-04-18T18:36:08.339Z,10.99
2023-04-18T18:38:36.562Z,10.89
2023-04-18T18:41:04.891Z,10.80
2023-04-18T18:43:32.852Z,10.70
2023-04-18T18:46:00.869Z,10.61
2023-04-18T18:48:28.997Z,10.55
2023-04-18T18:50:58.397Z,10.52
2023-04-18T18:53:26.229Z,10.49
2023-04-18T18:55:54.157Z,10.49
2023-04-18T18:58:22.119Z,10.44
2023-04-18T19:00:51.309Z,10.39
2023-04-18T19:03:21.346Z,10.33
2023-04-18T19:05:49.694Z,10.27
2023-04-18T19:08:17.631Z,10.21
2023-04-18T19:10:45.541Z,10.18
2023-04-18T19:13:13.708Z,10.18
2023-04-18T19:15:41.601Z,10.19
2023-04-18T19:18:09.757Z,10.20
2023-04-18T19:20:40.329Z,10.19
2023-04-18T19:23:08.188Z,10.17
2023-04-18T19:25:36.082Z,10.13
2023-04-18T19:28:05.910Z,10.07
2023-04-18T19:30:33.812Z,10.01
2023-04-18T19:33:02.153Z,10.00
2023-04-18T19:35:30.551Z,10.00
2023-04-18T19:38:01.721Z,10.02
2023-04-18T19:40:30.386Z,10.04
2023-04-18T19:42:58.413Z,10.01
2023-04-18T19:45:26.949Z,9.96
2023-04-18T19:47:54.989Z,9.89
2023-04-18T19:50:22.971Z,9.84
2023-04-18T19:52:50.942Z,9.81
2023-04-18T19:55:18.909Z,9.81
2023-04-18T19:57:47.773Z,9.82
2023-04-18T20:00:16.384Z,9.83
2023-04-18T20:02:44.408Z,9.82
2023-04-18T20:05:13.342Z,9.79
2023-04-18T20:07:42.030Z,9.73
2023-04-18T20:10:11.458Z,9.66
2023-04-18T20:12:39.917Z,9.62
2023-04-18T20:15:08.653Z,9.60
2023-04-18T20:17:36.556Z,9.61
2023-04-18T20:20:08.070Z,9.60
2023-04-18T20:22:36.197Z,9.60
2023-04-18T20:25:04.520Z,9.57
2023-04-18T20:27:32.574Z,9.51
2023-04-18T20:30:00.513Z,9.44
2023-04-18T20:32:28.457Z,9.40
2023-04-18T20:34:58.805Z,9.39
2023-04-18T20:37:27.800Z,9.37
2023-04-18T20:39:56.696Z,9.36
2023-04-18T20:42:24.792Z,9.36
2023-04-18T20:44:54.881Z,9.35
2023-04-18T20:47:23.059Z,9.33
2023-04-18T20:49:50.977Z,9.28
2023-04-18T20:52:19.309Z,9.20
2023-04-18T20:54:47.206Z,9.15
2023-04-18T20:57:15.142Z,9.12
2023-04-18T20:59:43.213Z,9.11
2023-04-18T21:02:11.854Z,9.12
2023-04-18T21:04:40.054Z,9.12
2023-04-18T21:07:08.139Z,9.10
2023-04-18T21:09:38.934Z,9.06
2023-04-18T21:12:07.066Z,9.00
2023-04-18T21:14:35.569Z,8.93
2023-04-18T21:17:03.709Z,8.89
2023-04-18T21:19:31.880Z,8.87
2023-04-18T21:21:59.960Z,8.86
2023-04-18T21:24:28.040Z,8.86
2023-04-18T21:26:56.053Z,8.86
2023-04-18T21:29:24.283Z,8.86
2023-04-18T21:31:52.918Z,8.86
2023-04-18T21:34:21.444Z,8.83
2023-04-18T21:36:49.305Z,8.80
2023-04-18T21:39:17.372Z,8.73
2023-04-18T21:41:45.545Z,8.67
2023-04-18T21:44:14.157Z,8.61
2023-04-18T21:46:42.334Z,8.58
2023-04-18T21:49:10.636Z,8.57
2023-04-18T21:51:38.869Z,8.57
2023-04-18T21:54:07.940Z,8.57
2023-04-18T21:56:36.039Z,8.58
2023-04-18T21:59:04.190Z,8.60
2023-04-18T22:01:34.457Z,8.60
2023-04-18T22:04:02.949Z,8.57
2023-04-18T22:06:32.508Z,8.52
2023-04-18T22:09:01.397Z,8.47
2023-04-18T22:11:29.324Z,8.44
2023-04-18T22:13:58.127Z,8.45
2023-04-18T22:16:26.444Z,8.49
2023-04-18T22:18:54.378Z,8.52
2023-04-18T22:21:22.370Z,8.56
2023-04-18T22:23:50.441Z,8.60
2023-04-18T22:26:18.517Z,8.65
2023-04-18T22:28:47.601Z,8.67
2023-04-18T22:31:15.949Z,8.67
2023-04-18T22:33:44.060Z,8.65
2023-04-18T22:36:12.024Z,8.61
2023-04-18T22:38:39.986Z,8.58
2023-04-18T22:41:08.116Z,8.61
2023-04-18T22:43:36.356Z,8.65
2023-04-18T22:46:04.440Z,8.69
2023-04-18T22:48:35.329Z,8.74
2023-04-18T22:51:03.698Z,8.78
2023-04-18T22:53:31.865Z,8.82
2023-04-18T22:55:59.805Z,8.85
2023-04-18T22:58:27.857Z,8.86
2023-04-18T23:00:55.865Z,8.86
2023-04-18T23:03:24.116Z,8.85
2023-04-18T23:05:52.681Z,8.86
2023-04-18T23:08:22.699Z,8.90
2023-04-18T23:10:51.081Z,8.94
2023-04-18T23:13:19.253Z,8.98
2023-04-18T23:15:47.227Z,9.02
2023-04-18T23:18:15.397Z,9.05
2023-04-18T23:20:43.368Z,9.10
2023-04-18T23:23:11.485Z,9.15
2023-04-18T23:25:39.457Z,9.20
2023-04-18T23:28:08.093Z,9.23
2023-04-18T23:30:37.179Z,9.28
2023-04-18T23:33:06.079Z,9.32
2023-04-18T23:35:34.229Z,9.35
2023-04-18T23:38:02.349Z,9.33
2023-04-18T23:40:30.400Z,9.33
2023-04-18T23:42:59.053Z,9.35
2023-04-18T23:45:28.815Z,9.37
2023-04-18T23:47:57.120Z,9.41
2023-04-18T23:50:25.147Z,9.45
2023-04-18T23:52:53.133Z,9.49
2023-04-18T23:55:21.296Z,9.51
2023-04-18T23:57:49.558Z,9.51
